Time;durP1;ratioP1;P1;durP2;ratioP2;P2;SDS_P1;SDS_P2;PMS_P1;PMS_P2;Temp;Humidity;BMP_temperature;BMP_pressure;BME280_temperature;BME280_humidity;BME280_pressure;Samples;Min_cycle;Max_cycle;Signal;HPM_P1;HPM_P2
2023/08/26 00:02:19;;;;;;;0.20;0.20;;;;;;;12.77;81.54;99741.41;4976641;28;20114;-83
2023/08/26 00:04:47;;;;;;;0.10;0.10;;;;;;;13.03;81.85;99781.47;4967359;28;20050;-79
2023/08/26 00:07:14;;;;;;;0.15;0.15;;;;;;;12.91;82.38;99768.97;4969822;28;20051;-83
2023/08/26 00:09:41;;;;;;;0.10;0.10;;;;;;;12.92;82.55;99767.06;4971402;28;20090;-79
2023/08/26 00:12:08;;;;;;;0.17;0.17;;;;;;;12.94;82.67;99766.75;4949902;28;20680;-78
2023/08/26 00:14:34;;;;;;;0.17;0.17;;;;;;;12.89;82.69;99768.44;4950434;28;20082;-79
2023/08/26 00:17:04;;;;;;;0.20;0.20;;;;;;;12.86;83.15;99770.94;4966609;28;20609;-78
2023/08/26 00:19:31;;;;;;;0.10;0.10;;;;;;;12.93;83.18;99784.31;4968584;28;20082;-78
2023/08/26 00:21:57;;;;;;;0.10;0.10;;;;;;;12.76;82.86;99758.97;4966420;28;20038;-78
2023/08/26 00:24:23;;;;;;;0.10;0.10;;;;;;;12.91;83.11;99787.38;4981657;28;20125;-79
2023/08/26 00:26:50;;;;;;;0.20;0.20;;;;;;;12.88;83.14;99779.72;4967747;28;20053;-82
2023/08/26 00:29:16;;;;;;;0.20;0.20;;;;;;;12.80;83.67;99775.69;4966622;28;20105;-82
2023/08/26 00:31:43;;;;;;;0.20;0.20;;;;;;;12.82;83.94;99792.69;4965692;28;20053;-82
2023/08/26 00:34:11;;;;;;;0.10;0.10;;;;;;;12.82;84.45;99789.09;4970783;28;20084;-82
2023/08/26 00:36:38;;;;;;;0.17;0.17;;;;;;;12.80;84.88;99794.06;4972320;28;20115;-81
2023/08/26 00:39:04;;;;;;;0.10;0.10;;;;;;;12.74;85.02;99774.91;4967986;28;20399;-80
2023/08/26 00:41:31;;;;;;;0.15;0.15;;;;;;;12.27;85.15;99699.69;4968223;28;20592;-82
2023/08/26 00:43:57;;;;;;;0.10;0.10;;;;;;;12.51;85.24;99738.13;4969519;28;20633;-82
2023/08/26 00:46:25;;;;;;;0.10;0.10;;;;;;;12.69;85.32;99779.63;4953242;28;20154;-77
2023/08/26 00:48:51;;;;;;;0.10;0.10;;;;;;;12.58;85.61;99760.53;4968458;28;20141;-77
2023/08/26 00:51:20;;;;;;;0.15;0.15;;;;;;;12.69;85.41;99780.44;4964687;28;20053;-79
2023/08/26 00:53:48;;;;;;;0.10;0.10;;;;;;;12.67;85.18;99782.66;4963348;28;20054;-77
2023/08/26 00:56:15;;;;;;;0.20;0.20;;;;;;;12.52;85.31;99761.69;4964019;28;20138;-78
2023/08/26 00:58:43;;;;;;;0.20;0.20;;;;;;;12.73;84.95;99786.16;4964565;28;20061;-77
2023/08/26 01:01:09;;;;;;;;;;;;;;;12.71;84.70;99786.44;4963864;28;20043;-77
2023/08/26 01:03:37;;;;;;;0.10;0.10;;;;;;;12.68;84.19;99788.97;4983027;28;19980;-82
2023/08/26 01:06:05;;;;;;;0.17;0.17;;;;;;;12.64;84.10;99783.25;4969865;28;20126;-82
2023/08/26 01:08:33;;;;;;;0.10;0.10;;;;;;;12.54;84.76;99772.34;4966519;28;20049;-82
2023/08/26 01:11:08;;;;;;;0.10;0.10;;;;;;;12.13;84.75;99708.59;4982713;28;20049;-82
2023/08/26 01:13:47;;;;;;;0.10;0.10;;;;;;;12.58;84.23;99782.47;4967443;28;20094;-77
2023/08/26 01:16:15;;;;;;;0.10;0.10;;;;;;;12.55;84.08;99772.06;4967010;28;20054;-77
2023/08/26 01:18:43;;;;;;;0.10;0.10;;;;;;;12.57;84.04;99774.53;4967016;28;20118;-78
2023/08/26 01:21:13;;;;;;;0.20;0.20;;;;;;;12.45;83.65;99756.53;4952942;28;20046;-82
2023/08/26 01:23:44;;;;;;;0.10;0.10;;;;;;;12.59;82.62;99780.56;4982485;28;20047;-82
2023/08/26 01:26:11;;;;;;;0.20;0.20;;;;;;;12.56;82.80;99781.94;4933187;28;20410;-79
2023/08/26 01:28:38;;;;;;;0.10;0.10;;;;;;;12.43;82.55;99757.94;4967327;28;20060;-79
2023/08/26 01:31:09;;;;;;;0.10;0.10;;;;;;;12.48;82.33;99777.06;4932822;28;20141;-79
2023/08/26 01:33:43;;;;;;;0.10;0.10;;;;;;;12.46;82.43;99774.63;4968022;28;20522;-78
2023/08/26 01:36:15;;;;;;;0.10;0.10;;;;;;;12.45;82.83;99783.97;4964672;28;20433;-79
2023/08/26 01:38:46;;;;;;;0.10;0.10;;;;;;;12.47;82.81;99786.41;4948038;28;20403;-78
2023/08/26 01:41:17;;;;;;;0.10;0.10;;;;;;;12.46;82.95;99785.59;4945344;28;20139;-79
2023/08/26 01:43:45;;;;;;;0.10;0.10;;;;;;;12.36;83.28;99771.16;4948205;28;20054;-80
2023/08/26 01:46:16;;;;;;;0.20;0.20;;;;;;;12.39;84.27;99779.63;4954404;28;20046;-80
2023/08/26 01:48:42;;;;;;;0.10;0.10;;;;;;;12.34;84.81;99777.75;4963432;28;20042;-79
2023/08/26 01:51:11;;;;;;;0.10;0.10;;;;;;;12.39;84.56;99779.63;4966878;28;20054;-79
2023/08/26 01:53:37;;;;;;;;;;;;;;;12.39;84.01;99787.03;4966547;28;20089;-78
2023/08/26 01:56:05;;;;;;;0.20;0.20;;;;;;;12.37;84.28;99775.53;4980749;28;19929;-79
2023/08/26 01:58:31;;;;;;;0.10;0.10;;;;;;;12.28;83.85;99773.41;4964244;28;20141;-79
2023/08/26 02:01:04;;;;;;;0.20;0.20;;;;;;;12.12;83.19;99745.31;4963055;28;20046;-78
2023/08/26 02:03:30;;;;;;;0.13;0.13;;;;;;;12.22;83.78;99760.03;4965029;28;20056;-82
2023/08/26 02:05:57;;;;;;;0.10;0.10;;;;;;;12.37;83.37;99784.56;4966023;28;20572;-83
2023/08/26 02:08:26;;;;;;;0.10;0.10;;;;;;;12.42;83.21;99783.72;4966917;28;20066;-82
2023/08/26 02:10:54;;;;;;;0.10;0.10;;;;;;;12.38;83.63;99788.16;4966868;28;20228;-79
2023/08/26 02:13:22;;;;;;;0.13;0.13;;;;;;;12.33;84.14;99786.25;4963939;28;20387;-78
2023/08/26 02:15:48;;;;;;;0.10;0.10;;;;;;;12.30;84.29;99790.38;4965259;28;20104;-79
2023/08/26 02:18:15;;;;;;;0.10;0.10;;;;;;;12.29;83.76;99785.19;4964761;28;20149;-79
2023/08/26 02:20:45;;;;;;;0.10;0.10;;;;;;;12.18;84.35;99782.53;4947115;28;20133;-80
2023/08/26 02:23:11;;;;;;;0.10;0.10;;;;;;;12.25;84.76;99792.34;4946757;28;20400;-80
2023/08/26 02:25:39;;;;;;;0.10;0.10;;;;;;;12.03;85.03;99761.56;4964166;28;20039;-80
2023/08/26 02:28:05;;;;;;;0.10;0.10;;;;;;;12.24;84.90;99780.56;4966346;28;20049;-79
2023/08/26 02:30:33;;;;;;;0.10;0.10;;;;;;;12.16;84.84;99773.78;4962521;28;20047;-79
2023/08/26 02:33:00;;;;;;;0.15;0.15;;;;;;;12.19;84.78;99769.66;4963341;28;20057;-79
2023/08/26 02:35:27;;;;;;;0.10;0.10;;;;;;;12.25;84.48;99775.91;4963044;28;20141;-78
2023/08/26 02:37:53;;;;;;;0.20;0.20;;;;;;;12.25;84.20;99770.41;4946667;28;20054;-78
2023/08/26 02:40:20;;;;;;;0.10;0.10;;;;;;;12.36;83.80;99782.94;4961059;28;20065;-79
2023/08/26 02:42:46;;;;;;;0.10;0.10;;;;;;;12.33;83.02;99776.13;4967093;28;20051;-77
2023/08/26 02:45:13;;;;;;;0.10;0.10;;;;;;;12.47;83.88;99783.66;4965800;28;20050;-80
2023/08/26 02:47:40;;;;;;;0.20;0.20;;;;;;;12.53;83.88;99774.28;4964011;28;20043;-79
2023/08/26 02:50:07;;;;;;;0.10;0.10;;;;;;;12.48;84.05;99769.66;4963652;28;20052;-80
2023/08/26 02:52:34;;;;;;;0.10;0.10;;;;;;;12.52;84.11;99769.91;4964837;28;20074;-79
2023/08/26 02:55:00;;;;;;;0.10;0.10;;;;;;;12.57;83.72;99775.34;4966515;28;20063;-79
2023/08/26 02:57:27;;;;;;;0.10;0.10;;;;;;;12.54;83.82;99759.47;4951692;28;20138;-82
2023/08/26 02:59:53;;;;;;;0.10;0.10;;;;;;;12.73;83.27;99784.25;4965773;28;20038;-83
2023/08/26 03:02:24;;;;;;;0.10;0.10;;;;;;;12.77;83.32;99792.72;4966205;28;20047;-83
2023/08/26 03:04:52;;;;;;;0.10;0.10;;;;;;;12.79;82.93;99790.50;4969981;28;20568;-83
2023/08/26 03:07:18;;;;;;;0.13;0.13;;;;;;;12.81;82.47;99790.22;4964465;28;20054;-83
2023/08/26 03:09:45;;;;;;;0.30;0.30;;;;;;;12.61;82.37;99764.63;4964746;28;20062;-83
2023/08/26 03:12:12;;;;;;;0.20;0.20;;;;;;;12.86;81.45;99798.38;4964962;28;20047;-83
2023/08/26 03:14:38;;;;;;;0.20;0.20;;;;;;;12.65;80.55;99751.97;4965370;28;20050;-82
2023/08/26 03:17:05;;;;;;;0.10;0.10;;;;;;;13.06;79.96;99800.09;4966427;28;20102;-83
2023/08/26 03:19:33;;;;;;;0.20;0.20;;;;;;;13.13;79.39;99788.75;4968659;28;20145;-83
2023/08/26 03:22:01;;;;;;;0.20;0.20;;;;;;;13.14;78.57;99783.00;4984956;28;20065;-83
2023/08/26 03:24:28;;;;;;;0.10;0.10;;;;;;;12.79;78.22;99727.38;4965972;28;20564;-83
2023/08/26 03:26:56;;;;;;;0.20;0.20;;;;;;;12.91;77.78;99737.97;4967174;28;20097;-82
2023/08/26 03:29:23;;;;;;;0.20;0.20;;;;;;;13.18;78.12;99785.94;4967134;28;20061;-84
2023/08/26 03:31:50;;;;;;;0.10;0.10;;;;;;;13.39;77.90;99803.00;4965532;28;20097;-84
2023/08/26 03:34:18;;;;;;;0.20;0.20;;;;;;;13.06;77.77;99745.19;4981580;28;20298;-84
2023/08/26 03:36:45;;;;;;;0.20;0.20;;;;;;;13.31;77.94;99782.50;4968051;28;20117;-84
2023/08/26 03:39:15;;;;;;;0.20;0.20;;;;;;;13.33;78.12;99773.97;4966760;28;20105;-83
2023/08/26 03:41:41;;;;;;;0.17;0.17;;;;;;;13.59;77.71;99803.91;4966287;28;20043;-82
2023/08/26 03:44:07;;;;;;;0.10;0.10;;;;;;;13.24;77.73;99745.53;4950172;28;20042;-83
2023/08/26 03:46:34;;;;;;;0.20;0.20;;;;;;;13.52;77.38;99785.03;4969365;28;20350;-82
2023/08/26 03:49:03;;;;;;;0.20;0.20;;;;;;;13.69;76.80;99797.44;4968136;28;20547;-82
2023/08/26 03:51:31;;;;;;;0.20;0.20;;;;;;;13.78;76.19;99797.59;4969489;28;20046;-83
2023/08/26 03:53:57;;;;;;;0.20;0.20;;;;;;;13.77;75.43;99783.03;4966460;28;20426;-82
2023/08/26 03:56:25;;;;;;;0.20;0.20;;;;;;;13.90;75.25;99792.50;4964043;28;20134;-82
2023/08/26 03:58:56;;;;;;;0.20;0.20;;;;;;;13.99;74.36;99790.69;4970823;28;20057;-83
2023/08/26 04:01:23;;;;;;;0.20;0.20;;;;;;;13.80;74.24;99752.22;4970223;28;20061;-83
2023/08/26 04:03:52;;;;;;;0.20;0.20;;;;;;;14.15;73.35;99794.03;4965988;28;20046;-83
2023/08/26 04:06:18;;;;;;;0.20;0.20;;;;;;;14.00;72.56;99751.09;4970626;28;20074;-83
2023/08/26 04:08:45;;;;;;;0.20;0.20;;;;;;;14.02;72.42;99748.84;4984427;28;20429;-81
2023/08/26 04:11:12;;;;;;;;;;;;;;;14.30;71.82;99787.44;4964674;28;20137;-82
2023/08/26 04:13:41;;;;;;;0.20;0.20;;;;;;;14.27;71.06;99778.97;4983434;28;19950;-81
2023/08/26 04:16:08;;;;;;;0.20;0.20;;;;;;;14.32;70.77;99776.16;4949407;28;20057;-78
2023/08/26 04:18:35;;;;;;;0.20;0.20;;;;;;;14.59;70.64;99788.34;4964398;28;20059;-79
2023/08/26 04:21:02;;;;;;;0.43;0.28;;;;;;;14.76;69.34;99787.81;4968535;28;20051;-78
2023/08/26 04:23:30;;;;;;;0.30;0.30;;;;;;;14.92;68.48;99787.53;4965271;28;20134;-79
2023/08/26 04:26:00;;;;;;;0.30;0.30;;;;;;;15.12;67.64;99778.06;4949973;28;20050;-78
2023/08/26 04:28:27;;;;;;;0.20;0.20;;;;;;;15.32;66.67;99780.38;4950339;28;20510;-78
2023/08/26 04:30:57;;;;;;;0.20;0.20;;;;;;;15.34;66.39;99752.53;4970635;28;20585;-84
2023/08/26 04:33:23;;;;;;;0.30;0.30;;;;;;;15.58;65.24;99768.00;4970038;28;20536;-83
2023/08/26 04:35:50;;;;;;;0.20;0.20;;;;;;;15.79;64.78;99784.91;4964595;28;20601;-83
2023/08/26 04:38:16;;;;;;;0.20;0.20;;;;;;;15.82;63.63;99750.41;4965195;28;20046;-83
2023/08/26 04:40:43;;;;;;;0.20;0.20;;;;;;;16.06;63.23;99774.94;4965525;28;20443;-79
2023/08/26 04:43:13;;;;;;;0.20;0.20;;;;;;;16.20;62.53;99785.91;4968148;28;20074;-79
2023/08/26 04:45:40;;;;;;;0.20;0.20;;;;;;;16.24;61.85;99769.56;4982318;28;20506;-79
2023/08/26 04:48:08;;;;;;;;;;;;;;;16.29;62.08;99777.69;4966462;28;20047;-78
2023/08/26 04:50:41;;;;;;;0.20;0.20;;;;;;;16.26;61.39;99770.88;4950236;28;19926;-78
2023/08/26 04:53:08;;;;;;;0.22;0.22;;;;;;;16.16;61.76;99754.56;4946616;28;20105;-79
2023/08/26 04:55:35;;;;;;;0.30;0.30;;;;;;;16.48;61.00;99785.78;4946311;28;20047;-79
2023/08/26 04:58:02;;;;;;;0.20;0.20;;;;;;;16.43;60.50;99759.13;4947432;28;20299;-79
2023/08/26 05:00:29;;;;;;;0.20;0.20;;;;;;;16.70;59.90;99773.91;4946337;28;20189;-79
2023/08/26 05:02:55;;;;;;;0.30;0.30;;;;;;;16.69;59.89;99761.22;4964284;28;20187;-83
2023/08/26 05:05:23;;;;;;;0.30;0.30;;;;;;;16.87;58.96;99764.06;4968759;28;20180;-79
2023/08/26 05:07:50;;;;;;;0.52;0.30;;;;;;;17.06;58.56;99769.38;4934432;28;20042;-78
2023/08/26 05:10:16;;;;;;;0.28;0.28;;;;;;;17.16;57.66;99773.78;4949480;28;20142;-79
2023/08/26 05:12:43;;;;;;;0.20;0.20;;;;;;;17.06;57.89;99755.56;4964617;28;20055;-79
2023/08/26 05:15:10;;;;;;;0.20;0.20;;;;;;;17.22;57.75;99753.16;4966873;28;20050;-78
2023/08/26 05:17:37;;;;;;;0.30;0.30;;;;;;;17.40;56.87;99747.66;4966466;28;20832;-79
2023/08/26 05:20:05;;;;;;;0.30;0.30;;;;;;;17.64;56.06;99763.84;4980891;28;20145;-78
2023/08/26 05:22:34;;;;;;;0.30;0.30;;;;;;;17.68;56.22;99756.50;4966514;28;20538;-78
2023/08/26 05:25:01;;;;;;;0.30;0.30;;;;;;;17.73;55.26;99761.06;4962052;28;20065;-78
2023/08/26 05:27:29;;;;;;;0.20;0.20;;;;;;;17.70;56.04;99759.75;4945810;28;20047;-78
2023/08/26 05:29:56;;;;;;;0.20;0.20;;;;;;;17.70;54.89;99753.41;4961259;28;20052;-78
2023/08/26 05:32:25;;;;;;;0.22;0.22;;;;;;;17.64;54.91;99747.25;4930873;28;20082;-78
2023/08/26 05:34:52;;;;;;;0.20;0.20;;;;;;;17.58;54.87;99743.81;4940118;28;20475;-83
2023/08/26 05:37:18;;;;;;;;;;;;;;;17.67;55.22;99748.53;4969106;28;20058;-85
2023/08/26 05:39:47;;;;;;;0.30;0.30;;;;;;;17.67;54.77;99748.53;4968155;28;20389;-79
2023/08/26 05:42:14;;;;;;;0.30;0.30;;;;;;;17.63;53.76;99742.81;4968080;28;20063;-81
2023/08/26 05:44:43;;;;;;;0.20;0.20;;;;;;;17.30;53.77;99710.13;4965675;28;20109;-83
2023/08/26 05:47:10;;;;;;;0.30;0.30;;;;;;;17.21;52.77;99704.56;4962876;28;20050;-77
2023/08/26 05:49:36;;;;;;;0.20;0.20;;;;;;;17.49;52.90;99751.28;4964628;28;20522;-78
2023/08/26 05:52:04;;;;;;;0.22;0.22;;;;;;;17.24;53.09;99725.22;4965463;28;20082;-83
2023/08/26 05:54:32;;;;;;;0.20;0.20;;;;;;;17.40;51.75;99748.50;4963234;28;20058;-83
2023/08/26 05:57:03;;;;;;;0.20;0.20;;;;;;;17.33;52.62;99739.88;4982234;28;20506;-83
2023/08/26 05:59:31;;;;;;;0.20;0.20;;;;;;;17.48;51.98;99751.59;4950168;28;20039;-79
2023/08/26 06:01:58;;;;;;;0.30;0.30;;;;;;;17.32;51.16;99718.09;4948807;28;20059;-79
2023/08/26 06:04:27;;;;;;;0.25;0.25;;;;;;;17.11;51.13;99678.06;4983583;28;20141;-79
2023/08/26 06:06:54;;;;;;;0.30;0.30;;;;;;;17.31;50.79;99722.78;4968318;28;20518;-79
2023/08/26 06:09:20;;;;;;;0.30;0.30;;;;;;;17.57;51.18;99760.72;4964337;28;20050;-78
2023/08/26 06:11:47;;;;;;;0.30;0.30;;;;;;;17.62;50.34;99755.03;4961402;28;20142;-78
2023/08/26 06:14:15;;;;;;;0.30;0.30;;;;;;;17.66;50.17;99744.97;4966097;28;20061;-79
2023/08/26 06:16:41;;;;;;;0.20;0.20;;;;;;;17.72;50.18;99757.47;4963380;28;20081;-79
2023/08/26 06:19:09;;;;;;;0.30;0.30;;;;;;;17.81;49.65;99753.94;4961327;28;20073;-85
2023/08/26 06:21:40;;;;;;;0.30;0.30;;;;;;;17.78;48.67;99740.72;4965628;28;20050;-79
2023/08/26 06:24:07;;;;;;;0.30;0.30;;;;;;;17.79;49.19;99736.81;4967542;28;20061;-79
2023/08/26 06:26:33;;;;;;;0.30;0.30;;;;;;;17.83;49.28;99727.56;4965017;28;20138;-80
2023/08/26 06:29:00;;;;;;;0.30;0.30;;;;;;;18.27;48.70;99754.41;4964024;28;20433;-80
2023/08/26 06:31:29;;;;;;;0.30;0.30;;;;;;;18.48;47.74;99748.16;4964373;28;20078;-79
2023/08/26 06:33:58;;;;;;;0.30;0.30;;;;;;;18.73;47.26;99753.97;4968524;28;20149;-84
2023/08/26 06:36:25;;;;;;;0.30;0.30;;;;;;;18.93;46.67;99728.28;4965978;28;20055;-80
2023/08/26 06:38:52;;;;;;;0.30;0.30;;;;;;;19.22;45.93;99746.09;4979421;28;20077;-78
2023/08/26 06:41:18;;;;;;;0.30;0.30;;;;;;;19.13;46.35;99728.72;4968930;28;20146;-79
2023/08/26 06:43:46;;;;;;;0.30;0.30;;;;;;;19.30;45.97;99733.34;4986582;28;20101;-78
2023/08/26 06:46:20;;;;;;;0.30;0.30;;;;;;;19.22;46.39;99723.13;4974462;28;20397;-84
2023/08/26 06:48:49;;;;;;;0.30;0.30;;;;;;;19.42;46.23;99743.69;4967145;28;20117;-85
2023/08/26 06:51:16;;;;;;;0.30;0.30;;;;;;;19.38;46.14;99749.13;4980221;28;20055;-78
2023/08/26 06:53:43;;;;;;;0.30;0.30;;;;;;;19.13;46.13;99717.66;4969045;28;20081;-78
2023/08/26 06:56:09;;;;;;;0.30;0.30;;;;;;;19.21;46.31;99729.84;4930556;28;20055;-84
2023/08/26 06:58:35;;;;;;;0.30;0.30;;;;;;;18.96;46.11;99697.16;4947996;28;20053;-79
2023/08/26 07:01:03;;;;;;;0.30;0.30;;;;;;;19.19;45.48;99734.88;4954609;28;20083;-78
2023/08/26 07:03:30;;;;;;;0.30;0.30;;;;;;;19.24;46.21;99741.03;4952822;28;20051;-80
2023/08/26 07:05:58;;;;;;;;;;;;;;;19.33;45.84;99742.97;4970628;28;20055;-83
2023/08/26 07:08:25;;;;;;;0.30;0.30;;;;;;;19.42;45.95;99744.53;4961745;28;20056;-85
2023/08/26 07:10:51;;;;;;;0.30;0.30;;;;;;;19.24;45.30;99688.38;4953899;28;20399;-84
2023/08/26 07:13:18;;;;;;;0.30;0.30;;;;;;;19.37;46.08;99713.41;4980028;28;20047;-80
2023/08/26 07:15:45;;;;;;;0.40;0.40;;;;;;;19.59;45.17;99703.97;4952351;28;20043;-85
2023/08/26 07:18:11;;;;;;;0.30;0.30;;;;;;;19.94;44.94;99728.66;4975392;28;20790;-83
2023/08/26 07:20:38;;;;;;;0.35;0.35;;;;;;;20.03;44.71;99734.13;4975753;28;20050;-82
2023/08/26 07:23:08;;;;;;;0.30;0.30;;;;;;;20.04;44.94;99710.78;4970184;28;20057;-82
2023/08/26 07:25:45;;;;;;;0.30;0.30;;;;;;;20.26;44.31;99737.34;4960593;28;20051;-81
2023/08/26 07:28:12;;;;;;;0.30;0.30;;;;;;;20.12;44.51;99703.50;4957953;28;20431;-80
2023/08/26 07:30:39;;;;;;;0.40;0.40;;;;;;;20.50;43.68;99732.19;4957708;28;20050;-79
2023/08/26 07:33:05;;;;;;;0.40;0.40;;;;;;;20.53;43.70;99737.88;4960214;28;20142;-82
2023/08/26 07:35:31;;;;;;;0.30;0.30;;;;;;;20.30;43.92;99722.78;4976746;28;20147;-82
2023/08/26 07:38:03;;;;;;;0.30;0.30;;;;;;;20.17;43.59;99695.00;4957619;28;20561;-83
2023/08/26 07:40:32;;;;;;;0.40;0.40;;;;;;;20.12;44.22;99693.25;4958563;28;20039;-82
2023/08/26 07:42:59;;;;;;;0.32;0.32;;;;;;;20.59;44.19;99727.34;4948967;28;20074;-82
2023/08/26 07:45:25;;;;;;;0.30;0.30;;;;;;;20.60;43.67;99737.31;4958855;28;20081;-84
2023/08/26 07:47:52;;;;;;;0.30;0.30;;;;;;;20.20;43.85;99699.03;4961826;28;20043;-84
2023/08/26 07:50:19;;;;;;;0.30;0.30;;;;;;;19.96;43.73;99720.78;4956956;28;20043;-79
2023/08/26 07:52:46;;;;;;;0.30;0.30;;;;;;;19.52;44.45;99685.09;4955449;28;20540;-80
2023/08/26 07:55:13;;;;;;;0.30;0.30;;;;;;;19.55;44.79;99700.25;4958488;28;20154;-80
2023/08/26 07:57:42;;;;;;;0.30;0.30;;;;;;;19.57;44.81;99731.22;4963300;28;20062;-82
2023/08/26 08:00:10;;;;;;;0.30;0.30;;;;;;;19.47;43.92;99728.84;4957047;28;20537;-80
2023/08/26 08:02:39;;;;;;;0.30;0.30;;;;;;;19.09;44.60;99689.78;4956734;28;20055;-79
2023/08/26 08:05:07;;;;;;;0.30;0.30;;;;;;;19.12;45.13;99702.97;4962146;28;20047;-83
2023/08/26 08:07:34;;;;;;;0.30;0.30;;;;;;;19.06;45.63;99714.59;4965192;28;20042;-84
2023/08/26 08:10:00;;;;;;;0.30;0.30;;;;;;;18.92;45.57;99698.97;4958434;28;20134;-81
2023/08/26 08:12:27;;;;;;;0.30;0.30;;;;;;;18.79;45.87;99686.16;4959760;28;20058;-81
2023/08/26 08:14:55;;;;;;;0.30;0.30;;;;;;;18.84;45.61;99695.09;4980334;28;20042;-80
2023/08/26 08:17:22;;;;;;;0.30;0.30;;;;;;;18.32;45.52;99623.34;4965568;28;20101;-80
2023/08/26 08:19:49;;;;;;;0.30;0.30;;;;;;;18.82;46.04;99691.84;4942917;28;20042;-81
2023/08/26 08:22:16;;;;;;;0.30;0.30;;;;;;;18.27;46.33;99607.75;4958659;28;20363;-83
2023/08/26 08:24:43;;;;;;;0.30;0.30;;;;;;;18.88;46.12;99697.19;4955732;28;20664;-82
2023/08/26 08:27:10;;;;;;;0.22;0.22;;;;;;;18.46;46.16;99648.88;4956325;28;20053;-81
2023/08/26 08:29:37;;;;;;;0.30;0.30;;;;;;;18.48;46.37;99671.47;4956681;28;20049;-80
2023/08/26 08:32:20;;;;;;;;;;;;;;;;;;;;;
2023/08/26 08:34:47;;;;;;;0.30;0.30;;;;;;;18.27;47.29;99640.94;4956795;28;20046;-80
2023/08/26 08:37:14;;;;;;;0.30;0.30;;;;;;;18.36;47.11;99640.91;4969649;28;20042;-81
2023/08/26 08:39:43;;;;;;;0.30;0.30;;;;;;;18.23;47.17;99620.63;4957561;28;20047;-82
2023/08/26 08:42:13;;;;;;;0.30;0.30;;;;;;;18.19;47.11;99606.63;4953157;28;20066;-81
2023/08/26 08:44:42;;;;;;;0.30;0.30;;;;;;;18.12;47.20;99589.75;4951786;28;20619;-81
2023/08/26 08:47:13;;;;;;;0.30;0.30;;;;;;;18.43;47.83;99677.22;4951362;28;20142;-81
2023/08/26 08:50:01;;;;;;;0.30;0.30;;;;;;;18.32;48.92;99654.59;4958691;28;20457;-82
2023/08/26 08:52:36;;;;;;;0.30;0.30;;;;;;;18.22;49.16;99644.69;4959021;28;20078;-79
2023/08/26 08:55:05;;;;;;;0.30;0.30;;;;;;;18.14;49.37;99634.50;4967566;28;20055;-81
2023/08/26 08:57:34;;;;;;;0.30;0.30;;;;;;;18.08;49.72;99630.25;4965595;28;20043;-79
2023/08/26 09:00:03;;;;;;;0.20;0.20;;;;;;;18.12;50.64;99658.91;4966782;28;20066;-82
2023/08/26 09:02:37;;;;;;;0.20;0.20;;;;;;;17.96;50.96;99647.50;4977133;28;20105;-82
2023/08/26 09:05:05;;;;;;;0.20;0.20;;;;;;;18.00;51.55;99676.94;4965833;28;20480;-82
2023/08/26 09:07:40;;;;;;;0.20;0.20;;;;;;;17.90;52.07;99673.72;4981080;28;20073;-79
2023/08/26 09:10:11;;;;;;;0.20;0.20;;;;;;;17.35;52.76;99593.94;4965008;28;20061;-80
2023/08/26 09:12:37;;;;;;;0.30;0.30;;;;;;;17.78;53.11;99660.53;4964629;28;20060;-79
2023/08/26 09:15:06;;;;;;;0.30;0.30;;;;;;;17.79;53.53;99668.53;4965130;28;20097;-79
2023/08/26 09:17:35;;;;;;;0.30;0.30;;;;;;;17.65;53.73;99645.75;4962617;28;20481;-79
2023/08/26 09:20:05;;;;;;;0.25;0.25;;;;;;;17.57;54.26;99636.34;4965242;28;20042;-80
2023/08/26 09:22:46;;;;;;;0.20;0.20;;;;;;;17.83;54.49;99668.69;4963200;28;20047;-80
2023/08/26 09:25:13;;;;;;;0.20;0.20;;;;;;;17.78;54.53;99666.06;4968417;28;20051;-79
2023/08/26 09:27:42;;;;;;;0.30;0.30;;;;;;;17.69;55.33;99641.19;4951710;28;20074;-80
2023/08/26 09:30:20;;;;;;;0.30;0.30;;;;;;;18.00;55.24;99687.19;4944092;28;20799;-80
2023/08/26 09:32:49;;;;;;;0.30;0.30;;;;;;;17.97;55.19;99685.09;4949526;28;20457;-80
2023/08/26 09:35:18;;;;;;;0.30;0.30;;;;;;;17.57;55.32;99633.56;4964547;28;20411;-82
2023/08/26 09:37:48;;;;;;;0.30;0.30;;;;;;;17.62;56.09;99635.38;4966924;28;20050;-82
2023/08/26 09:40:16;;;;;;;0.20;0.20;;;;;;;17.80;56.17;99663.81;4965950;28;20425;-77
2023/08/26 09:42:43;;;;;;;0.30;0.30;;;;;;;17.80;55.85;99678.44;4966283;28;20173;-81
2023/08/26 09:45:11;;;;;;;;;;;;;;;17.83;55.82;99682.50;4981842;28;20055;-82
2023/08/26 09:47:40;;;;;;;0.30;0.30;;;;;;;17.49;55.86;99628.88;4977330;28;19933;-79
2023/08/26 09:50:12;;;;;;;0.20;0.20;;;;;;;17.81;55.24;99682.03;4961551;28;20063;-85
2023/08/26 09:52:45;;;;;;;0.30;0.30;;;;;;;17.55;54.88;99642.19;4958393;28;20050;-82
2023/08/26 09:55:15;;;;;;;0.20;0.20;;;;;;;17.58;54.14;99646.25;4965567;28;20611;-82
2023/08/26 09:57:47;;;;;;;0.20;0.20;;;;;;;17.37;52.99;99629.50;4955981;28;20050;-82
2023/08/26 10:00:16;;;;;;;0.20;0.20;;;;;;;17.37;53.88;99630.34;4616929;28;10000437;-80
2023/08/26 10:02:50;;;;;;;0.20;0.20;;;;;;;17.44;53.67;99655.50;4958674;28;20141;-81
2023/08/26 10:05:20;;;;;;;0.20;0.20;;;;;;;17.48;54.44;99676.97;4956128;28;20047;-80
2023/08/26 10:07:48;;;;;;;0.20;0.20;;;;;;;17.41;54.72;99652.63;4962897;28;20414;-80
2023/08/26 10:10:24;;;;;;;0.30;0.30;;;;;;;17.54;54.91;99676.50;4956211;28;20043;-79
2023/08/26 10:12:56;;;;;;;0.30;0.30;;;;;;;17.52;54.97;99666.91;4960786;28;20085;-77
2023/08/26 10:15:26;;;;;;;0.20;0.20;;;;;;;17.48;55.51;99674.22;4970508;28;20051;-78
2023/08/26 10:17:56;;;;;;;0.20;0.20;;;;;;;17.36;56.34;99659.09;4961959;28;20650;-80
2023/08/26 10:20:25;;;;;;;0.30;0.30;;;;;;;16.78;56.77;99581.81;4965267;28;20066;-80
2023/08/26 10:22:51;;;;;;;0.20;0.20;;;;;;;17.40;57.70;99678.59;4962010;28;20058;-79
2023/08/26 10:25:19;;;;;;;0.20;0.20;;;;;;;17.05;58.12;99615.03;4962484;28;20043;-79
2023/08/26 10:27:50;;;;;;;0.20;0.20;;;;;;;17.01;58.62;99612.91;4949626;28;20057;-79
2023/08/26 10:30:17;;;;;;;0.30;0.30;;;;;;;17.40;59.02;99673.88;4965134;28;20514;-81
2023/08/26 10:32:44;;;;;;;0.30;0.30;;;;;;;17.27;59.47;99656.34;4962325;28;20062;-81
2023/08/26 10:35:12;;;;;;;0.20;0.20;;;;;;;17.29;59.57;99678.94;4966918;28;20051;-78
2023/08/26 10:37:41;;;;;;;0.20;0.20;;;;;;;17.16;60.25;99649.50;4966650;28;20047;-78
2023/08/26 10:40:12;;;;;;;0.30;0.30;;;;;;;17.26;59.61;99668.53;4970821;28;20132;-79
2023/08/26 10:42:59;;;;;;;0.20;0.20;;;;;;;17.23;59.86;99662.81;4968002;28;20043;-80
2023/08/26 10:45:26;;;;;;;0.20;0.20;;;;;;;16.80;60.75;99601.63;4968518;28;20046;-80
2023/08/26 10:47:54;;;;;;;0.20;0.20;;;;;;;17.19;61.08;99661.84;4966486;28;20134;-80
2023/08/26 10:50:22;;;;;;;0.20;0.20;;;;;;;17.15;61.42;99667.19;4965946;28;20054;-80
2023/08/26 10:52:56;;;;;;;0.20;0.20;;;;;;;17.08;61.00;99655.78;4966313;28;20616;-81
2023/08/26 10:55:25;;;;;;;0.20;0.20;;;;;;;16.78;60.03;99623.22;4964507;28;20058;-75
2023/08/26 10:58:18;;;;;;;0.20;0.20;;;;;;;16.93;59.16;99660.59;4964056;28;20109;-75
2023/08/26 11:00:48;;;;;;;0.20;0.20;;;;;;;16.80;58.43;99651.31;4955725;28;20225;-75
2023/08/26 11:03:16;;;;;;;0.20;0.20;;;;;;;16.68;57.70;99667.69;4975132;28;20054;-75
2023/08/26 11:05:44;;;;;;;0.20;0.20;;;;;;;16.66;57.86;99661.66;4961409;28;20082;-69
2023/08/26 11:08:11;;;;;;;;;;;;;;;16.61;58.35;99662.63;4946787;28;20047;-76
2023/08/26 11:10:39;;;;;;;0.20;0.20;;;;;;;16.56;58.62;99640.69;4960347;28;19997;-75
2023/08/26 11:13:06;;;;;;;0.20;0.20;;;;;;;16.55;58.02;99644.59;4959026;28;20126;-76
2023/08/26 11:15:37;;;;;;;0.20;0.20;;;;;;;16.59;58.29;99656.63;4964122;28;20101;-75
2023/08/26 11:18:12;;;;;;;0.20;0.20;;;;;;;16.44;57.58;99627.50;4965816;28;20054;-78
2023/08/26 11:20:42;;;;;;;0.20;0.20;;;;;;;16.47;57.58;99634.31;4931377;28;20298;-79
2023/08/26 11:23:17;;;;;;;0.20;0.20;;;;;;;16.54;57.26;99651.25;4979310;28;20051;-74
2023/08/26 11:25:45;;;;;;;0.20;0.20;;;;;;;16.51;57.85;99649.94;4962864;28;20054;-79
2023/08/26 11:28:14;;;;;;;0.23;0.23;;;;;;;16.56;57.96;99636.00;4962092;28;20050;-74
2023/08/26 11:30:41;;;;;;;0.20;0.20;;;;;;;16.57;58.39;99615.56;4947755;28;20057;-74
2023/08/26 11:33:11;;;;;;;0.20;0.20;;;;;;;16.79;58.05;99643.38;4966013;28;20492;-75
2023/08/26 11:35:41;;;;;;;0.20;0.20;;;;;;;16.65;58.55;99616.72;4964321;28;20471;-75
2023/08/26 11:38:12;;;;;;;0.20;0.20;;;;;;;16.61;58.63;99621.22;4967006;28;20054;-79
2023/08/26 11:40:40;;;;;;;0.20;0.20;;;;;;;16.76;58.88;99642.06;4950500;28;20295;-75
2023/08/26 11:43:08;;;;;;;0.20;0.20;;;;;;;16.71;59.20;99640.25;4966293;28;20402;-79